METAR Data
IDs: Format: Raw Decoded Include TAF

Data at: 1730 UTC 03 Jun 2020

PTYA 031650Z VRB04KT 12SM FEW016 BKN300 27/25 A2985 RMK SLP108 T02710250